Time;durP1;ratioP1;P1;durP2;ratioP2;P2;SDS_P1;SDS_P2;PMS_P1;PMS_P2;Temp;Humidity;BMP_temperature;BMP_pressure;BME280_temperature;BME280_humidity;BME280_pressure;Samples;Min_cycle;Max_cycle;Signal;HPM_P1;HPM_P2
2023/05/25 00:00:48;;;;;;;0.95;0.95;;;;;;;18.90;100.00;99988.47;5009139;28;20201;-74
2023/05/25 00:03:15;;;;;;;0.93;0.93;;;;;;;18.88;100.00;99979.75;5008900;28;20213;-75
2023/05/25 00:05:42;;;;;;;1.02;1.02;;;;;;;18.74;100.00;99963.41;5009750;28;20228;-74
2023/05/25 00:08:09;;;;;;;1.00;1.00;;;;;;;18.80;100.00;99972.00;5010970;28;20204;-74
2023/05/25 00:10:36;;;;;;;1.23;1.23;;;;;;;18.75;100.00;99976.50;5010936;28;20197;-74
2023/05/25 00:13:04;;;;;;;1.00;1.00;;;;;;;18.81;100.00;99983.41;5011187;28;20201;-74
2023/05/25 00:15:31;;;;;;;1.15;1.15;;;;;;;18.78;100.00;99979.06;5010735;28;20200;-74
2023/05/25 00:17:57;;;;;;;1.00;1.00;;;;;;;18.67;100.00;99965.28;4987296;28;20208;-74
2023/05/25 00:20:24;;;;;;;1.10;1.10;;;;;;;18.74;100.00;99974.78;5000796;28;20216;-74
2023/05/25 00:22:54;;;;;;;1.10;1.10;;;;;;;18.69;100.00;99968.72;5010647;28;20205;-74
2023/05/25 00:25:21;;;;;;;1.02;1.02;;;;;;;18.72;100.00;99967.84;5009932;28;20228;-75
2023/05/25 00:27:48;;;;;;;0.90;0.90;;;;;;;18.74;100.00;99977.41;5010674;28;20577;-75
2023/05/25 00:30:16;;;;;;;1.00;1.00;;;;;;;18.81;100.00;99978.13;5011202;28;20659;-75
2023/05/25 00:32:43;;;;;;;1.08;1.08;;;;;;;18.75;100.00;99980.91;5009493;28;20212;-75
2023/05/25 00:35:10;;;;;;;1.02;1.02;;;;;;;18.74;100.00;99976.53;5010291;28;20267;-76
2023/05/25 00:37:37;;;;;;;1.00;1.00;;;;;;;18.74;100.00;99976.53;5009598;28;20213;-76
2023/05/25 00:40:06;;;;;;;0.90;0.90;;;;;;;18.73;100.00;99974.78;5010750;28;20205;-76
2023/05/25 00:42:34;;;;;;;0.98;0.98;;;;;;;18.71;100.00;99976.59;5009718;28;20567;-70
2023/05/25 00:45:01;;;;;;;1.10;1.10;;;;;;;18.63;100.00;99981.13;5009313;28;20232;-70
2023/05/25 00:47:30;;;;;;;1.00;1.00;;;;;;;18.64;100.00;99980.25;4974343;28;20232;-72
2023/05/25 00:49:57;;;;;;;0.90;0.90;;;;;;;18.43;100.00;99962.22;5033576;28;20679;-76
2023/05/25 00:52:25;;;;;;;1.00;1.00;;;;;;;18.63;100.00;99989.00;5048913;28;20823;-74
2023/05/25 00:54:55;;;;;;;0.98;0.98;;;;;;;18.55;100.00;99983.91;5046142;28;20663;-75
2023/05/25 00:57:25;;;;;;;0.90;0.90;;;;;;;18.61;100.00;99980.31;5050021;28;20238;-74
2023/05/25 00:59:56;;;;;;;0.93;0.93;;;;;;;18.49;100.00;99964.72;5048654;28;20211;-75
2023/05/25 01:02:24;;;;;;;0.90;0.90;;;;;;;18.41;100.00;99958.78;5048949;28;20199;-75
2023/05/25 01:04:54;;;;;;;0.90;0.90;;;;;;;18.59;100.00;99992.56;5049986;28;20629;-75
2023/05/25 01:07:24;;;;;;;1.00;1.00;;;;;;;18.44;100.00;99972.72;5050000;28;21944;-74
2023/05/25 01:09:57;;;;;;;0.80;0.80;;;;;;;18.57;100.00;99986.50;5031385;28;20261;-73
2023/05/25 01:12:24;;;;;;;1.00;1.00;;;;;;;18.55;100.00;99973.38;5012707;28;20210;-74
2023/05/25 01:14:52;;;;;;;0.90;0.90;;;;;;;18.62;100.00;99988.13;5048578;28;20199;-74
2023/05/25 01:17:20;;;;;;;1.00;1.00;;;;;;;18.61;100.00;99990.81;5031585;28;20199;-75
2023/05/25 01:19:47;;;;;;;1.05;1.05;;;;;;;18.61;100.00;99990.81;5050190;28;20243;-74
2023/05/25 01:22:20;;;;;;;0.93;0.93;;;;;;;18.58;100.00;99990.88;5048726;28;20208;-76
2023/05/25 01:24:51;;;;;;;0.90;0.90;;;;;;;18.53;100.00;99993.56;5049710;28;20606;-75
2023/05/25 01:27:26;;;;;;;0.90;0.90;;;;;;;18.51;100.00;99984.00;5049176;28;20637;-75
2023/05/25 01:29:55;;;;;;;0.90;0.90;;;;;;;18.44;100.00;99985.84;5049460;28;20206;-74
2023/05/25 01:32:22;;;;;;;0.80;0.80;;;;;;;18.41;100.00;99987.66;5051470;28;20203;-74
2023/05/25 01:34:52;;;;;;;0.70;0.70;;;;;;;18.48;100.00;99994.53;5052132;28;20211;-74
2023/05/25 01:37:22;;;;;;;0.82;0.82;;;;;;;18.46;100.00;99996.31;5053429;28;20212;-74
2023/05/25 01:39:49;;;;;;;0.73;0.73;;;;;;;18.46;100.00;99999.81;5053536;28;20227;-75
2023/05/25 01:42:15;;;;;;;0.80;0.80;;;;;;;18.31;100.00;99982.56;5051645;28;20227;-75
2023/05/25 01:44:43;;;;;;;0.90;0.90;;;;;;;18.34;100.00;99993.00;5053310;28;20845;-76
2023/05/25 01:47:20;;;;;;;1.00;1.00;;;;;;;18.22;100.00;99988.00;5053471;28;20560;-75
2023/05/25 01:49:56;;;;;;;0.90;0.90;;;;;;;18.13;100.00;99987.25;4986100;28;20306;-75
2023/05/25 01:52:28;;;;;;;0.90;0.90;;;;;;;17.87;100.00;99952.75;5052294;28;20235;-74
2023/05/25 01:55:03;;;;;;;0.90;0.90;;;;;;;18.00;100.00;99997.13;5052328;28;20215;-75
2023/05/25 01:57:31;;;;;;;0.82;0.82;;;;;;;17.92;100.00;100001.59;5052307;28;20206;-74
2023/05/25 02:00:01;;;;;;;0.93;0.93;;;;;;;17.89;100.00;99999.03;5052469;28;20202;-74
2023/05/25 02:02:29;;;;;;;0.80;0.80;;;;;;;17.93;100.00;99999.84;5051243;28;20200;-75
2023/05/25 02:04:56;;;;;;;0.90;0.90;;;;;;;17.85;100.00;99992.09;5051711;28;20219;-75
2023/05/25 02:07:25;;;;;;;0.80;0.80;;;;;;;17.85;100.00;99971.13;5052443;28;20615;-75
2023/05/25 02:09:51;;;;;;;0.80;0.80;;;;;;;17.82;100.00;99984.28;5052308;28;20206;-75
2023/05/25 02:12:18;;;;;;;0.80;0.80;;;;;;;17.81;100.00;99991.28;5051281;28;20207;-75
2023/05/25 02:14:47;;;;;;;1.00;1.00;;;;;;;17.81;100.00;99985.19;5053078;28;20195;-75
2023/05/25 02:17:16;;;;;;;1.00;1.00;;;;;;;17.84;100.00;99977.25;5017330;28;20300;-75
2023/05/25 02:19:43;;;;;;;0.80;0.80;;;;;;;17.62;100.00;99941.78;5052781;28;20306;-75
2023/05/25 02:22:10;;;;;;;0.90;0.90;;;;;;;17.67;100.00;99960.91;5052417;28;20215;-76
2023/05/25 02:24:38;;;;;;;0.90;0.90;;;;;;;17.75;100.00;99964.31;5052810;28;20235;-74
2023/05/25 02:27:05;;;;;;;0.70;0.70;;;;;;;17.88;100.00;99986.81;5052375;28;20277;-73
2023/05/25 02:29:32;;;;;;;0.80;0.80;;;;;;;17.87;100.00;99994.72;5050591;28;20199;-73
2023/05/25 02:31:59;;;;;;;0.70;0.70;;;;;;;17.79;100.00;99971.22;5052189;28;20266;-74
2023/05/25 02:34:26;;;;;;;0.90;0.90;;;;;;;17.88;100.00;99997.31;5052461;28;20211;-74
2023/05/25 02:36:53;;;;;;;0.80;0.80;;;;;;;17.90;100.00;100000.78;5052161;28;20208;-74
2023/05/25 02:39:19;;;;;;;0.77;0.77;;;;;;;17.80;100.00;99984.31;5051084;28;20257;-73
2023/05/25 02:41:47;;;;;;;0.80;0.80;;;;;;;17.98;100.00;100003.28;5051028;28;20207;-74
2023/05/25 02:44:14;;;;;;;0.80;0.80;;;;;;;17.76;100.00;99971.28;5051824;28;20654;-74
2023/05/25 02:46:41;;;;;;;0.80;0.80;;;;;;;17.87;100.00;99995.59;5052545;28;20208;-74
2023/05/25 02:49:08;;;;;;;0.80;0.80;;;;;;;18.02;100.00;100010.19;5052305;28;20285;-74
2023/05/25 02:51:34;;;;;;;0.90;0.90;;;;;;;18.03;100.00;100012.81;5051560;28;20218;-75
2023/05/25 02:54:01;;;;;;;0.70;0.70;;;;;;;18.17;100.00;100015.19;5050891;28;20210;-75
2023/05/25 02:56:28;;;;;;;0.80;0.80;;;;;;;18.17;100.00;100013.44;5051671;28;20644;-75
2023/05/25 02:58:56;;;;;;;0.80;0.80;;;;;;;18.24;100.00;100016.81;5051460;28;20222;-74
2023/05/25 03:01:24;;;;;;;0.82;0.82;;;;;;;18.11;100.00;100015.31;5052065;28;20203;-74
2023/05/25 03:03:51;;;;;;;0.80;0.80;;;;;;;18.25;100.00;100029.94;5050180;28;20216;-74
2023/05/25 03:06:20;;;;;;;0.90;0.90;;;;;;;18.35;100.00;100028.00;5050852;28;20302;-74
2023/05/25 03:08:47;;;;;;;0.90;0.90;;;;;;;18.24;100.00;100030.81;5051495;28;20191;-73
2023/05/25 03:11:13;;;;;;;0.90;0.90;;;;;;;18.36;100.00;100026.25;5050561;28;20214;-73
2023/05/25 03:13:40;;;;;;;0.93;0.93;;;;;;;18.47;100.00;100030.44;5051566;28;20204;-74
2023/05/25 03:16:09;;;;;;;0.80;0.80;;;;;;;18.60;100.00;100025.84;5050658;28;20211;-74
2023/05/25 03:18:36;;;;;;;0.88;0.88;;;;;;;18.82;100.00;100042.94;5051314;28;20218;-75
2023/05/25 03:21:02;;;;;;;0.80;0.80;;;;;;;19.04;100.00;100039.00;5051543;28;20253;-73
2023/05/25 03:23:29;;;;;;;0.70;0.70;;;;;;;19.43;100.00;100039.09;5050805;28;20273;-74
2023/05/25 03:25:56;;;;;;;0.90;0.90;;;;;;;19.82;100.00;100045.22;5048380;28;20239;-74
2023/05/25 03:28:23;;;;;;;0.70;0.70;;;;;;;20.18;100.00;100061.03;5049660;28;20665;-74
2023/05/25 03:30:50;;;;;;;0.80;0.80;;;;;;;20.76;100.00;100060.41;5051203;28;20220;-74
2023/05/25 03:33:18;;;;;;;0.80;0.80;;;;;;;21.45;100.00;100074.31;5050335;28;20195;-73
2023/05/25 03:35:45;;;;;;;0.80;0.80;;;;;;;21.88;100.00;100064.19;5044811;28;20199;-75
2023/05/25 03:38:12;;;;;;;0.70;0.70;;;;;;;22.65;100.00;100081.94;5015210;28;20219;-69
2023/05/25 03:40:39;;;;;;;0.80;0.80;;;;;;;23.44;100.00;100089.72;5050662;28;20549;-70
2023/05/25 03:43:06;;;;;;;0.80;0.80;;;;;;;24.13;100.00;100075.56;5049429;28;20749;-68
2023/05/25 03:45:32;;;;;;;0.70;0.70;;;;;;;24.76;97.24;100093.22;5051220;28;20273;-69
2023/05/25 03:47:59;;;;;;;0.85;0.85;;;;;;;25.49;91.48;100087.34;5051285;28;20273;-68
2023/05/25 03:50:27;;;;;;;0.80;0.80;;;;;;;26.08;89.53;100090.72;5050913;28;20238;-71
2023/05/25 03:52:54;;;;;;;0.73;0.73;;;;;;;26.44;87.54;100095.19;5050369;28;20211;-68
2023/05/25 03:55:21;;;;;;;1.00;1.00;;;;;;;26.15;82.49;100102.78;5050077;28;20191;-67
2023/05/25 03:57:48;;;;;;;0.73;0.73;;;;;;;26.11;82.38;100111.00;5050130;28;20199;-75
2023/05/25 04:00:15;;;;;;;1.10;1.10;;;;;;;26.72;82.99;100103.50;5015903;28;20200;-73
2023/05/25 04:02:42;;;;;;;0.80;0.80;;;;;;;27.01;79.93;100104.72;5050488;28;20225;-72
2023/05/25 04:05:09;;;;;;;1.20;1.20;;;;;;;27.34;77.13;100107.41;5050041;28;20234;-74
2023/05/25 04:07:37;;;;;;;1.10;1.10;;;;;;;27.65;76.75;100107.50;5050714;28;20214;-78
2023/05/25 04:10:06;;;;;;;0.75;0.75;;;;;;;27.76;74.13;100112.22;5051055;28;20269;-72
2023/05/25 04:12:33;;;;;;;0.82;0.82;;;;;;;27.90;72.89;100115.84;5014894;28;20230;-73
2023/05/25 04:15:00;;;;;;;0.80;0.80;;;;;;;28.18;73.90;100111.69;5050415;28;20210;-71
2023/05/25 04:17:27;;;;;;;0.82;0.82;;;;;;;28.44;69.29;100113.69;5050100;28;20634;-77
2023/05/25 04:19:53;;;;;;;0.73;0.73;;;;;;;28.72;67.23;100129.00;5049234;28;20195;-69
2023/05/25 04:22:20;;;;;;;0.80;0.80;;;;;;;28.68;64.74;100130.97;5048529;28;20203;-67
2023/05/25 04:24:48;;;;;;;0.70;0.70;;;;;;;28.49;65.03;100117.84;5048159;28;20253;-70
2023/05/25 04:27:15;;;;;;;0.80;0.80;;;;;;;28.34;65.38;100131.19;5046355;28;20625;-70
2023/05/25 04:29:42;;;;;;;0.80;0.80;;;;;;;27.60;69.03;100130.88;5048246;28;20206;-72
2023/05/25 04:32:09;;;;;;;0.70;0.70;;;;;;;27.63;72.42;100141.38;5050402;28;20221;-70
2023/05/25 04:34:36;;;;;;;0.73;0.73;;;;;;;27.59;72.65;100135.34;5050127;28;20303;-71
2023/05/25 04:37:04;;;;;;;0.70;0.70;;;;;;;27.30;74.53;100137.78;5049675;28;20201;-70
2023/05/25 04:39:31;;;;;;;0.70;0.70;;;;;;;26.61;77.89;100140.47;5036476;28;20195;-70
2023/05/25 04:42:03;;;;;;;0.80;0.80;;;;;;;26.22;81.27;100140.59;5048686;28;20286;-70
2023/05/25 04:44:30;;;;;;;0.80;0.80;;;;;;;25.81;82.02;100144.31;5050221;28;20203;-69
2023/05/25 04:46:58;;;;;;;0.90;0.90;;;;;;;25.42;82.04;100153.16;5047558;28;20227;-69
2023/05/25 04:49:25;;;;;;;0.77;0.77;;;;;;;25.48;82.45;100152.00;5048928;28;20326;-71
2023/05/25 04:51:52;;;;;;;0.80;0.80;;;;;;;25.42;85.20;100141.66;5049258;28;20219;-68
2023/05/25 04:54:19;;;;;;;0.90;0.90;;;;;;;25.98;79.37;100149.72;5031244;28;20191;-71
2023/05/25 04:56:46;;;;;;;0.80;0.80;;;;;;;26.62;74.83;100144.81;5048408;28;20214;-70
2023/05/25 04:59:14;;;;;;;0.90;0.90;;;;;;;26.88;70.07;100175.50;5050173;28;20207;-69
2023/05/25 05:01:43;;;;;;;0.77;0.77;;;;;;;26.51;71.80;100181.72;5007203;28;20779;-70
2023/05/25 05:04:10;;;;;;;1.17;1.17;;;;;;;26.46;73.82;100186.44;5012502;28;20251;-67
2023/05/25 05:06:37;;;;;;;0.88;0.88;;;;;;;26.32;75.04;100146.34;5051141;28;20229;-70
2023/05/25 05:09:04;;;;;;;0.80;0.80;;;;;;;26.74;76.39;100189.47;5052753;28;20240;-69
2023/05/25 05:11:31;;;;;;;0.80;0.80;;;;;;;26.59;78.16;100193.72;5054119;28;20679;-70
2023/05/25 05:13:58;;;;;;;0.80;0.80;;;;;;;26.69;77.29;100194.13;5052798;28;20195;-69
2023/05/25 05:16:30;;;;;;;1.00;1.00;;;;;;;27.17;75.27;100179.31;5052678;28;20302;-68
2023/05/25 05:18:57;;;;;;;0.70;0.70;;;;;;;26.97;82.56;100193.63;5053011;28;20686;-69
2023/05/25 05:21:23;;;;;;;1.08;1.08;;;;;;;26.33;82.50;100196.78;5052835;28;20198;-72
2023/05/25 05:23:50;;;;;;;0.90;0.90;;;;;;;26.75;89.06;100187.66;5053158;28;20206;-79
2023/05/25 05:26:17;;;;;;;1.10;1.10;;;;;;;27.16;80.00;100180.25;5051223;28;20223;-73
2023/05/25 05:28:44;;;;;;;0.80;0.80;;;;;;;27.79;72.98;100197.38;5052639;28;20211;-71
2023/05/25 05:31:11;;;;;;;0.85;0.85;;;;;;;27.41;77.12;100188.69;5051494;28;20210;-71
2023/05/25 05:33:40;;;;;;;1.00;1.00;;;;;;;27.75;75.05;100188.69;5048679;28;20298;-70
2023/05/25 05:36:07;;;;;;;0.70;0.70;;;;;;;27.97;71.24;100201.69;5052908;28;20214;-70
2023/05/25 05:38:34;;;;;;;0.90;0.90;;;;;;;27.87;70.74;100182.66;5049731;28;20249;-70
2023/05/25 05:41:01;;;;;;;0.80;0.80;;;;;;;28.35;67.71;100212.94;5051979;28;20872;-71
2023/05/25 05:43:28;;;;;;;0.90;0.90;;;;;;;28.57;67.16;100205.47;5053215;28;20199;-69
2023/05/25 05:45:55;;;;;;;0.95;0.95;;;;;;;28.63;65.81;100206.91;5053445;28;20704;-69
2023/05/25 05:48:22;;;;;;;0.80;0.80;;;;;;;28.31;66.46;100214.06;5052440;28;20203;-68
2023/05/25 05:50:51;;;;;;;1.00;1.00;;;;;;;27.72;69.22;100211.97;5049929;28;20234;-70
2023/05/25 05:53:18;;;;;;;0.90;0.90;;;;;;;26.99;73.74;100205.09;5052715;28;20199;-70
2023/05/25 05:55:44;;;;;;;1.10;1.10;;;;;;;26.52;77.45;100216.25;5050858;28;20218;-69
2023/05/25 05:58:11;;;;;;;1.10;1.10;;;;;;;25.99;81.46;100201.94;5051558;28;20195;-69
2023/05/25 06:00:38;;;;;;;0.90;0.90;;;;;;;26.00;83.81;100212.50;5051796;28;20211;-69
2023/05/25 06:03:04;;;;;;;0.90;0.90;;;;;;;26.09;83.94;100214.72;5050888;28;20206;-70
2023/05/25 06:05:31;;;;;;;1.10;1.10;;;;;;;25.96;85.52;100213.56;5052221;28;20198;-71
2023/05/25 06:07:59;;;;;;;1.10;1.10;;;;;;;25.99;85.20;100209.91;5051424;28;20210;-69
2023/05/25 06:10:26;;;;;;;0.90;0.90;;;;;;;25.96;84.54;100213.56;5051881;28;20196;-70
2023/05/25 06:12:53;;;;;;;1.00;1.00;;;;;;;26.12;83.27;100214.56;5050900;28;20207;-69
2023/05/25 06:15:20;;;;;;;0.90;0.90;;;;;;;26.20;85.09;100214.25;5053313;28;20265;-69
2023/05/25 06:17:46;;;;;;;1.10;1.10;;;;;;;25.64;85.45;100211.50;5052076;28;20202;-69
2023/05/25 06:20:14;;;;;;;1.00;1.00;;;;;;;25.70;84.71;100211.22;5051491;28;20203;-69
2023/05/25 06:22:41;;;;;;;1.20;1.20;;;;;;;25.91;87.37;100220.88;5052513;28;20214;-69
2023/05/25 06:25:10;;;;;;;1.10;1.10;;;;;;;25.55;88.04;100201.28;5050005;28;20207;-68
2023/05/25 06:27:37;;;;;;;1.20;1.20;;;;;;;25.60;92.35;100228.50;5051148;28;20230;-68
2023/05/25 06:30:04;;;;;;;1.20;1.20;;;;;;;25.54;98.34;100223.47;5050536;28;20265;-68
2023/05/25 06:32:30;;;;;;;1.30;1.30;;;;;;;25.50;93.03;100230.69;5051490;28;20554;-70
2023/05/25 06:34:57;;;;;;;1.00;1.00;;;;;;;25.62;91.46;100235.47;5041302;28;20579;-69
2023/05/25 06:37:24;;;;;;;0.90;0.90;;;;;;;25.62;89.82;100226.63;5046193;28;20603;-69
2023/05/25 06:39:51;;;;;;;1.13;1.13;;;;;;;24.74;90.24;100148.13;5045471;28;20200;-70
2023/05/25 06:42:19;;;;;;;1.08;1.08;;;;;;;25.15;100.00;100234.81;5051363;28;20207;-72
2023/05/25 06:44:46;;;;;;;1.55;1.52;;;;;;;24.76;100.00;100207.25;5052052;28;20329;-71
2023/05/25 06:47:13;;;;;;;1.23;1.23;;;;;;;24.96;96.60;100231.25;5052184;28;20224;-68
2023/05/25 06:49:39;;;;;;;1.08;1.08;;;;;;;24.63;92.54;100240.53;5047164;28;20227;-67
2023/05/25 06:52:06;;;;;;;1.20;1.20;;;;;;;24.45;94.00;100230.66;5045691;28;20207;-69
2023/05/25 06:54:33;;;;;;;1.15;1.15;;;;;;;24.34;99.76;100232.84;5030992;28;20258;-67
2023/05/25 06:57:00;;;;;;;1.15;1.15;;;;;;;24.11;98.73;100220.47;5015486;28;20215;-69
2023/05/25 06:59:28;;;;;;;1.10;1.10;;;;;;;24.01;100.00;100197.88;5050147;28;20203;-69
2023/05/25 07:01:55;;;;;;;0.90;0.90;;;;;;;24.12;100.00;100195.69;5050749;28;20626;-69
2023/05/25 07:04:22;;;;;;;1.27;1.27;;;;;;;24.40;97.81;100227.34;5051133;28;20282;-70
2023/05/25 07:06:52;;;;;;;1.00;1.00;;;;;;;24.56;95.17;100224.00;5043049;28;20258;-68
2023/05/25 07:09:18;;;;;;;1.00;1.00;;;;;;;24.59;88.93;100209.75;5041797;28;20210;-67
2023/05/25 07:11:45;;;;;;;0.90;0.90;;;;;;;24.83;91.19;100231.78;5049110;28;20261;-68
2023/05/25 07:14:12;;;;;;;0.82;0.82;;;;;;;25.01;85.75;100223.94;5046701;28;20203;-69
2023/05/25 07:16:40;;;;;;;1.00;1.00;;;;;;;25.17;80.74;100235.66;5049436;28;20211;-69
2023/05/25 07:19:07;;;;;;;1.10;1.10;;;;;;;24.73;74.80;100222.44;5047187;28;20662;-77
2023/05/25 07:21:33;;;;;;;0.90;0.90;;;;;;;24.84;75.64;100213.16;5049895;28;20721;-68
2023/05/25 07:24:00;;;;;;;0.93;0.93;;;;;;;25.38;89.68;100233.00;5046413;28;20590;-72
2023/05/25 07:26:27;;;;;;;1.05;1.05;;;;;;;25.58;76.63;100235.66;5049049;28;20235;-70
2023/05/25 07:28:54;;;;;;;1.25;1.25;;;;;;;25.57;74.11;100215.38;5049357;28;20210;-70
2023/05/25 07:31:21;;;;;;;1.00;1.00;;;;;;;25.81;77.26;100234.66;5040820;28;20195;-71
2023/05/25 07:33:49;;;;;;;1.13;1.13;;;;;;;25.43;72.67;100233.66;5035615;28;20199;-70
2023/05/25 07:36:16;;;;;;;1.00;1.00;;;;;;;25.84;76.53;100238.03;5047254;28;20203;-71
2023/05/25 07:38:43;;;;;;;1.08;1.08;;;;;;;26.18;79.60;100242.72;5049911;28;20210;-70
2023/05/25 07:41:12;;;;;;;1.00;1.00;;;;;;;26.38;74.10;100241.78;5044852;28;20221;-73
2023/05/25 07:43:38;;;;;;;0.93;0.93;;;;;;;26.65;71.19;100244.94;5048570;28;20257;-69
2023/05/25 07:46:06;;;;;;;1.25;1.25;;;;;;;26.23;71.06;100245.13;5046431;28;20224;-69
2023/05/25 07:48:32;;;;;;;1.20;1.20;;;;;;;26.26;73.12;100248.50;5043455;28;20781;-69
2023/05/25 07:51:00;;;;;;;1.10;1.10;;;;;;;25.85;73.69;100247.75;5046279;28;20234;-68
2023/05/25 07:53:27;;;;;;;1.10;1.10;;;;;;;25.77;79.75;100249.88;5045106;28;20203;-70
2023/05/25 07:55:54;;;;;;;1.00;1.00;;;;;;;25.73;78.89;100240.31;5048756;28;20199;-68
2023/05/25 07:58:21;;;;;;;0.93;0.93;;;;;;;25.20;82.16;100247.03;5048959;28;20207;-70
2023/05/25 08:00:48;;;;;;;1.00;1.00;;;;;;;25.18;82.72;100245.31;5048366;28;20728;-71
2023/05/25 08:03:16;;;;;;;0.90;0.90;;;;;;;25.35;84.73;100249.94;5048918;28;20206;-73
2023/05/25 08:05:43;;;;;;;1.00;1.00;;;;;;;25.23;85.32;100247.78;5048236;28;20269;-73
2023/05/25 08:08:13;;;;;;;0.90;0.90;;;;;;;25.30;86.83;100251.91;5048117;28;20321;-70
2023/05/25 08:10:40;;;;;;;0.98;0.98;;;;;;;25.35;85.49;100257.03;5040315;28;20593;-69
2023/05/25 08:13:06;;;;;;;0.90;0.90;;;;;;;25.67;86.17;100248.56;5049437;28;20214;-69
2023/05/25 08:15:33;;;;;;;0.90;0.90;;;;;;;25.77;82.39;100241.91;5046790;28;20199;-68
2023/05/25 08:18:02;;;;;;;0.90;0.90;;;;;;;26.03;86.03;100230.97;5044644;28;20203;-67
2023/05/25 08:20:29;;;;;;;0.90;0.90;;;;;;;26.23;83.46;100250.47;5042854;28;20300;-68
2023/05/25 08:22:55;;;;;;;0.90;0.90;;;;;;;26.27;81.33;100222.78;5045283;28;20218;-67
2023/05/25 08:25:24;;;;;;;0.90;0.90;;;;;;;26.41;82.26;100241.63;5048388;28;20214;-67
2023/05/25 08:27:51;;;;;;;1.02;1.02;;;;;;;26.69;82.60;100252.66;5064083;28;20753;-67
2023/05/25 08:30:17;;;;;;;1.00;1.00;;;;;;;26.35;79.07;100253.41;5048229;28;20207;-67
2023/05/25 08:32:44;;;;;;;0.90;0.90;;;;;;;26.35;81.33;100244.56;5042510;28;20687;-73
2023/05/25 08:35:12;;;;;;;1.00;1.00;;;;;;;26.07;82.73;100242.31;5047861;28;20250;-72
2023/05/25 08:37:39;;;;;;;1.60;1.60;;;;;;;26.04;83.34;100245.94;5047433;28;20219;-72
2023/05/25 08:40:08;;;;;;;0.98;0.98;;;;;;;26.14;84.58;100234.00;5048183;28;20211;-73
2023/05/25 08:42:36;;;;;;;0.90;0.90;;;;;;;26.43;83.52;100221.16;5026648;28;20290;-73
2023/05/25 08:45:03;;;;;;;1.10;1.10;;;;;;;26.12;82.69;100251.78;5049891;28;20191;-72
2023/05/25 08:47:32;;;;;;;0.95;0.95;;;;;;;26.49;79.75;100255.44;5049071;28;20717;-72
2023/05/25 08:50:02;;;;;;;0.90;0.90;;;;;;;26.51;80.63;100232.25;5048205;28;20318;-70
2023/05/25 08:52:33;;;;;;;0.93;0.93;;;;;;;26.70;81.71;100246.41;5045925;28;20958;-69
2023/05/25 08:55:05;;;;;;;0.90;0.90;;;;;;;26.71;82.28;100242.81;5048302;28;20294;-69
2023/05/25 08:57:40;;;;;;;0.95;0.95;;;;;;;26.69;81.05;100247.34;5047289;28;20524;-69
2023/05/25 09:00:09;;;;;;;1.17;1.17;;;;;;;26.88;76.69;100242.88;5048203;28;20311;-70
2023/05/25 09:02:39;;;;;;;1.10;1.10;;;;;;;26.47;73.44;100230.72;5036475;28;20203;-69
2023/05/25 09:05:08;;;;;;;1.05;1.05;;;;;;;26.40;71.16;100219.47;5042821;28;20254;-71
2023/05/25 09:07:35;;;;;;;0.80;0.80;;;;;;;26.58;77.07;100236.34;5045490;28;20282;-70
2023/05/25 09:10:03;;;;;;;0.85;0.85;;;;;;;26.45;73.91;100243.19;5043569;28;20290;-71
2023/05/25 09:12:31;;;;;;;1.00;1.00;;;;;;;26.51;75.02;100226.94;5042207;28;20203;-71
2023/05/25 09:14:59;;;;;;;0.98;0.98;;;;;;;26.80;77.45;100234.38;5038776;28;20204;-72
2023/05/25 09:17:27;;;;;;;0.80;0.80;;;;;;;26.70;74.99;100217.16;5041846;28;20662;-67
2023/05/25 09:19:54;;;;;;;1.30;1.30;;;;;;;26.34;75.75;100235.72;5007139;28;20232;-67
2023/05/25 09:22:21;;;;;;;1.33;1.33;;;;;;;26.41;74.76;100231.84;5050900;28;20230;-66
2023/05/25 09:24:48;;;;;;;1.00;1.00;;;;;;;26.44;77.14;100239.69;5053788;28;20702;-67
2023/05/25 09:27:19;;;;;;;1.23;1.23;;;;;;;26.55;78.03;100239.16;5036642;28;20234;-69
2023/05/25 09:29:48;;;;;;;1.00;1.00;;;;;;;26.58;77.34;100215.06;5040808;28;20202;-68
2023/05/25 09:32:17;;;;;;;0.90;0.90;;;;;;;26.76;75.63;100221.28;5042256;28;20273;-68
2023/05/25 09:34:44;;;;;;;0.85;0.85;;;;;;;26.84;74.28;100217.34;5046097;28;20252;-68
2023/05/25 09:37:13;;;;;;;0.85;0.85;;;;;;;26.83;76.10;100220.09;5048533;28;20200;-68
2023/05/25 09:39:40;;;;;;;0.90;0.90;;;;;;;26.71;74.75;100218.88;5045537;28;20238;-69
2023/05/25 09:42:07;;;;;;;1.02;1.02;;;;;;;26.70;74.59;100222.47;5046133;28;20227;-69
2023/05/25 09:44:34;;;;;;;0.88;0.88;;;;;;;26.90;70.11;100221.50;5046490;28;20210;-68
2023/05/25 09:47:01;;;;;;;5.72;1.33;;;;;;;26.99;65.25;100213.06;5047553;28;20223;-68
2023/05/25 09:49:30;;;;;;;0.90;0.90;;;;;;;26.61;65.61;100212.28;5047330;28;20752;-68
2023/05/25 09:51:56;;;;;;;1.20;1.20;;;;;;;26.71;63.05;100208.22;5048546;28;20286;-67
2023/05/25 09:54:23;;;;;;;0.90;0.90;;;;;;;26.80;60.14;100206.91;5051433;28;20257;-67
2023/05/25 09:56:50;;;;;;;0.82;0.82;;;;;;;26.87;61.75;100214.53;5046916;28;20216;-70
2023/05/25 09:59:17;;;;;;;0.80;0.80;;;;;;;26.65;62.73;100205.84;5049396;28;20200;-68
2023/05/25 10:01:44;;;;;;;1.10;1.10;;;;;;;26.51;65.87;100200.34;5036577;28;20600;-68
2023/05/25 10:04:11;;;;;;;0.93;0.93;;;;;;;26.42;61.94;100182.19;5046190;28;20670;-68
2023/05/25 10:06:40;;;;;;;0.90;0.90;;;;;;;26.49;63.73;100194.25;5038539;28;20886;-69
2023/05/25 10:09:08;;;;;;;1.27;1.27;;;;;;;26.40;62.79;100198.19;5039930;28;20234;-68
2023/05/25 10:11:39;;;;;;;0.90;0.90;;;;;;;26.73;63.46;100194.84;5038765;28;20200;-69
2023/05/25 10:14:07;;;;;;;1.08;1.08;;;;;;;26.83;62.07;100186.34;5043304;28;20227;-70
2023/05/25 10:16:34;;;;;;;1.10;1.10;;;;;;;26.85;60.86;100183.63;5040694;28;20199;-70
2023/05/25 10:19:06;;;;;;;1.10;1.10;;;;;;;27.07;60.77;100179.81;5043718;28;20211;-70
2023/05/25 10:21:35;;;;;;;0.90;0.90;;;;;;;27.22;56.50;100177.31;5044538;28;20203;-69
2023/05/25 10:24:06;;;;;;;0.90;0.90;;;;;;;27.33;56.46;100161.59;5043909;28;20672;-69
2023/05/25 10:26:36;;;;;;;0.90;0.90;;;;;;;27.26;53.53;100176.19;5037181;28;20267;-69
2023/05/25 10:29:04;;;;;;;0.95;0.95;;;;;;;27.31;54.26;100174.16;5046587;28;20231;-68
2023/05/25 10:31:32;;;;;;;0.90;0.90;;;;;;;27.45;53.53;100158.34;5041389;28;20210;-68
2023/05/25 10:34:00;;;;;;;0.82;0.82;;;;;;;27.54;50.88;100163.16;5022619;28;20208;-68
2023/05/25 10:36:29;;;;;;;0.80;0.80;;;;;;;27.43;50.46;100152.22;5014521;28;20665;-69
2023/05/25 10:38:57;;;;;;;1.10;1.10;;;;;;;27.52;49.76;100154.41;5042716;28;20677;-69
2023/05/25 10:41:25;;;;;;;0.90;0.90;;;;;;;27.81;49.28;100150.16;5044306;28;20215;-69
2023/05/25 10:43:54;;;;;;;1.00;1.00;;;;;;;27.90;49.19;100152.31;5042223;28;20210;-67
2023/05/25 10:46:21;;;;;;;0.80;0.80;;;;;;;28.01;50.00;100134.78;5050472;28;20677;-70
2023/05/25 10:48:50;;;;;;;0.90;0.90;;;;;;;28.22;52.71;100137.25;5033503;28;20273;-70
2023/05/25 10:51:19;;;;;;;1.02;1.02;;;;;;;28.35;49.86;100115.13;5047096;28;20233;-70
2023/05/25 10:53:47;;;;;;;1.13;1.13;;;;;;;28.47;50.60;100129.53;5051484;28;20207;-69
2023/05/25 10:56:14;;;;;;;1.23;1.23;;;;;;;28.48;50.84;100131.25;5047717;28;20682;-68
2023/05/25 10:58:43;;;;;;;0.90;0.90;;;;;;;28.75;51.54;100127.03;5046212;28;20208;-68
2023/05/25 11:01:12;;;;;;;0.90;0.90;;;;;;;28.51;49.65;100123.06;5049727;28;20745;-69
2023/05/25 11:03:50;;;;;;;0.80;0.80;;;;;;;28.87;49.39;100128.94;5041545;28;20585;-70
2023/05/25 11:06:19;;;;;;;1.00;1.00;;;;;;;28.75;48.36;100119.03;5047338;28;20207;-70
2023/05/25 11:08:50;;;;;;;2.05;1.55;;;;;;;28.69;49.63;100106.00;5042875;28;20237;-70
2023/05/25 11:11:17;;;;;;;1.00;1.00;;;;;;;28.82;50.43;100107.03;5050756;28;20199;-69
2023/05/25 11:13:46;;;;;;;1.33;1.33;;;;;;;29.06;49.40;100115.38;5040466;28;20211;-68
2023/05/25 11:16:16;;;;;;;0.90;0.90;;;;;;;28.95;50.73;100113.34;5048355;28;20195;-69
2023/05/25 11:18:45;;;;;;;1.10;1.10;;;;;;;28.71;52.07;100105.94;5048829;28;20597;-69
2023/05/25 11:21:13;;;;;;;1.00;1.00;;;;;;;28.85;52.53;100105.97;5052104;28;20219;-70
2023/05/25 11:23:52;;;;;;;1.08;1.08;;;;;;;29.05;50.17;100106.50;5051649;28;20203;-75
2023/05/25 11:26:21;;;;;;;0.95;0.95;;;;;;;28.60;52.55;100098.53;5050436;28;20230;-75